sensor_id;sensor_type;location;lat;lon;timestamp;P1;durP1;ratioP1;P2;durP2;ratioP2
71183;SDS011;58887;51.980;4.464;2023-05-10T00:01:33;15.40;;;15.38;;
71183;SDS011;58887;51.980;4.464;2023-05-10T00:03:59;15.16;;;15.10;;
71183;SDS011;58887;51.980;4.464;2023-05-10T00:06:24;15.47;;;15.45;;
71183;SDS011;58887;51.980;4.464;2023-05-10T00:08:51;15.91;;;15.84;;
71183;SDS011;58887;51.980;4.464;2023-05-10T00:11:16;15.90;;;15.83;;
71183;SDS011;58887;51.980;4.464;2023-05-10T00:13:42;16.59;;;16.55;;
71183;SDS011;58887;51.980;4.464;2023-05-10T00:16:07;16.23;;;16.19;;
71183;SDS011;58887;51.980;4.464;2023-05-10T00:18:33;16.18;;;16.18;;
71183;SDS011;58887;51.980;4.464;2023-05-10T00:20:59;15.66;;;15.64;;
71183;SDS011;58887;51.980;4.464;2023-05-10T00:23:24;17.38;;;17.38;;
71183;SDS011;58887;51.980;4.464;2023-05-10T00:25:50;17.07;;;17.07;;
71183;SDS011;58887;51.980;4.464;2023-05-10T00:28:15;17.10;;;17.10;;
71183;SDS011;58887;51.980;4.464;2023-05-10T00:30:41;16.62;;;16.62;;
71183;SDS011;58887;51.980;4.464;2023-05-10T00:33:06;14.85;;;14.85;;
71183;SDS011;58887;51.980;4.464;2023-05-10T00:35:32;13.82;;;13.82;;
71183;SDS011;58887;51.980;4.464;2023-05-10T00:37:57;13.69;;;13.64;;
71183;SDS011;58887;51.980;4.464;2023-05-10T00:40:23;13.91;;;13.83;;
71183;SDS011;58887;51.980;4.464;2023-05-10T00:42:49;14.32;;;14.27;;
71183;SDS011;58887;51.980;4.464;2023-05-10T00:45:15;14.29;;;14.27;;
71183;SDS011;58887;51.980;4.464;2023-05-10T00:47:40;14.78;;;14.76;;
71183;SDS011;58887;51.980;4.464;2023-05-10T00:50:06;15.19;;;15.18;;
71183;SDS011;58887;51.980;4.464;2023-05-10T00:52:32;15.15;;;15.04;;
71183;SDS011;58887;51.980;4.464;2023-05-10T00:54:57;15.23;;;15.19;;
71183;SDS011;58887;51.980;4.464;2023-05-10T00:57:23;16.42;;;16.28;;
71183;SDS011;58887;51.980;4.464;2023-05-10T00:59:49;16.26;;;16.16;;
71183;SDS011;58887;51.980;4.464;2023-05-10T01:02:15;15.83;;;15.66;;
71183;SDS011;58887;51.980;4.464;2023-05-10T01:04:41;15.89;;;15.78;;
71183;SDS011;58887;51.980;4.464;2023-05-10T01:07:08;15.76;;;15.61;;
71183;SDS011;58887;51.980;4.464;2023-05-10T01:09:33;17.15;;;16.96;;
71183;SDS011;58887;51.980;4.464;2023-05-10T01:11:59;17.54;;;17.50;;
71183;SDS011;58887;51.980;4.464;2023-05-10T01:14:26;18.38;;;18.15;;
71183;SDS011;58887;51.980;4.464;2023-05-10T01:16:53;19.12;;;18.81;;
71183;SDS011;58887;51.980;4.464;2023-05-10T01:21:51;18.31;;;17.98;;
71183;SDS011;58887;51.980;4.464;2023-05-10T01:33:24;19.57;;;19.57;;
71183;SDS011;58887;51.980;4.464;2023-05-10T01:35:58;18.65;;;18.58;;
71183;SDS011;58887;51.980;4.464;2023-05-10T01:38:38;17.79;;;17.66;;
71183;SDS011;58887;51.980;4.464;2023-05-10T01:41:18;18.79;;;18.74;;
71183;SDS011;58887;51.980;4.464;2023-05-10T01:46:43;19.84;;;19.84;;
71183;SDS011;58887;51.980;4.464;2023-05-10T01:49:25;18.07;;;18.07;;
71183;SDS011;58887;51.980;4.464;2023-05-10T01:51:55;20.37;;;20.37;;
71183;SDS011;58887;51.980;4.464;2023-05-10T01:54:29;19.33;;;19.33;;
71183;SDS011;58887;51.980;4.464;2023-05-10T01:57:00;23.44;;;23.44;;
71183;SDS011;58887;51.980;4.464;2023-05-10T01:59:30;31.43;;;31.43;;
71183;SDS011;58887;51.980;4.464;2023-05-10T02:02:05;26.13;;;26.13;;
71183;SDS011;58887;51.980;4.464;2023-05-10T02:04:33;14.74;;;14.74;;
71183;SDS011;58887;51.980;4.464;2023-05-10T02:07:03;12.71;;;12.71;;
71183;SDS011;58887;51.980;4.464;2023-05-10T02:09:32;17.10;;;17.10;;
71183;SDS011;58887;51.980;4.464;2023-05-10T02:12:00;17.83;;;17.83;;
71183;SDS011;58887;51.980;4.464;2023-05-10T02:14:30;11.45;;;11.45;;
71183;SDS011;58887;51.980;4.464;2023-05-10T02:17:00;11.63;;;11.58;;
71183;SDS011;58887;51.980;4.464;2023-05-10T02:19:29;15.76;;;15.70;;
71183;SDS011;58887;51.980;4.464;2023-05-10T02:21:57;17.72;;;17.72;;
71183;SDS011;58887;51.980;4.464;2023-05-10T02:24:25;15.33;;;15.33;;
71183;SDS011;58887;51.980;4.464;2023-05-10T02:26:53;13.31;;;13.31;;
71183;SDS011;58887;51.980;4.464;2023-05-10T02:29:23;14.73;;;14.73;;
71183;SDS011;58887;51.980;4.464;2023-05-10T02:31:54;16.96;;;16.96;;
71183;SDS011;58887;51.980;4.464;2023-05-10T02:34:21;20.53;;;20.53;;
71183;SDS011;58887;51.980;4.464;2023-05-10T02:36:50;20.40;;;20.40;;
71183;SDS011;58887;51.980;4.464;2023-05-10T02:39:21;16.42;;;16.42;;
71183;SDS011;58887;51.980;4.464;2023-05-10T02:41:49;19.25;;;19.25;;
71183;SDS011;58887;51.980;4.464;2023-05-10T02:44:18;17.24;;;17.23;;
71183;SDS011;58887;51.980;4.464;2023-05-10T02:46:45;18.89;;;18.89;;
71183;SDS011;58887;51.980;4.464;2023-05-10T02:49:12;17.43;;;17.43;;
71183;SDS011;58887;51.980;4.464;2023-05-10T02:51:40;18.13;;;18.12;;
71183;SDS011;58887;51.980;4.464;2023-05-10T02:54:11;18.36;;;18.24;;
71183;SDS011;58887;51.980;4.464;2023-05-10T02:56:42;17.38;;;17.35;;
71183;SDS011;58887;51.980;4.464;2023-05-10T02:59:15;20.35;;;20.33;;
71183;SDS011;58887;51.980;4.464;2023-05-10T03:01:41;28.63;;;28.63;;
71183;SDS011;58887;51.980;4.464;2023-05-10T03:04:07;24.33;;;24.33;;
71183;SDS011;58887;51.980;4.464;2023-05-10T03:06:32;23.65;;;23.65;;
71183;SDS011;58887;51.980;4.464;2023-05-10T03:08:59;30.44;;;30.44;;
71183;SDS011;58887;51.980;4.464;2023-05-10T03:22:24;84.31;;;84.31;;
71183;SDS011;58887;51.980;4.464;2023-05-10T03:24:55;54.89;;;54.89;;
71183;SDS011;58887;51.980;4.464;2023-05-10T03:27:23;19.50;;;19.50;;
71183;SDS011;58887;51.980;4.464;2023-05-10T03:29:52;39.71;;;39.71;;
71183;SDS011;58887;51.980;4.464;2023-05-10T03:32:20;32.61;;;32.61;;
71183;SDS011;58887;51.980;4.464;2023-05-10T03:34:47;29.35;;;29.35;;
71183;SDS011;58887;51.980;4.464;2023-05-10T03:37:12;28.99;;;28.99;;
71183;SDS011;58887;51.980;4.464;2023-05-10T03:39:38;20.63;;;20.63;;
71183;SDS011;58887;51.980;4.464;2023-05-10T03:42:03;29.57;;;29.57;;
71183;SDS011;58887;51.980;4.464;2023-05-10T03:44:29;39.86;;;39.86;;
71183;SDS011;58887;51.980;4.464;2023-05-10T03:46:54;42.00;;;42.00;;
71183;SDS011;58887;51.980;4.464;2023-05-10T03:49:22;25.40;;;25.40;;
71183;SDS011;58887;51.980;4.464;2023-05-10T03:51:48;27.80;;;27.80;;
71183;SDS011;58887;51.980;4.464;2023-05-10T03:54:13;48.44;;;48.44;;
71183;SDS011;58887;51.980;4.464;2023-05-10T03:56:39;46.54;;;46.54;;
71183;SDS011;58887;51.980;4.464;2023-05-10T03:59:04;54.39;;;54.39;;
71183;SDS011;58887;51.980;4.464;2023-05-10T04:01:33;60.16;;;60.16;;
71183;SDS011;58887;51.980;4.464;2023-05-10T04:03:59;34.01;;;34.01;;
71183;SDS011;58887;51.980;4.464;2023-05-10T04:06:24;24.09;;;24.09;;
71183;SDS011;58887;51.980;4.464;2023-05-10T04:08:50;20.32;;;20.32;;
71183;SDS011;58887;51.980;4.464;2023-05-10T04:11:15;23.87;;;23.87;;
71183;SDS011;58887;51.980;4.464;2023-05-10T04:13:41;29.24;;;29.24;;
71183;SDS011;58887;51.980;4.464;2023-05-10T04:16:08;28.33;;;28.33;;
71183;SDS011;58887;51.980;4.464;2023-05-10T04:18:34;20.59;;;20.59;;
71183;SDS011;58887;51.980;4.464;2023-05-10T04:20:59;15.42;;;15.42;;
71183;SDS011;58887;51.980;4.464;2023-05-10T04:23:26;12.62;;;12.61;;
71183;SDS011;58887;51.980;4.464;2023-05-10T04:25:58;11.52;;;11.50;;
71183;SDS011;58887;51.980;4.464;2023-05-10T04:28:24;15.68;;;15.68;;
71183;SDS011;58887;51.980;4.464;2023-05-10T04:30:50;18.08;;;18.08;;
71183;SDS011;58887;51.980;4.464;2023-05-10T04:33:15;16.79;;;16.79;;
71183;SDS011;58887;51.980;4.464;2023-05-10T04:35:41;12.04;;;12.04;;
71183;SDS011;58887;51.980;4.464;2023-05-10T04:38:06;11.68;;;11.68;;
71183;SDS011;58887;51.980;4.464;2023-05-10T04:40:33;11.90;;;11.90;;
71183;SDS011;58887;51.980;4.464;2023-05-10T04:42:59;11.29;;;11.29;;
71183;SDS011;58887;51.980;4.464;2023-05-10T04:45:24;9.95;;;9.94;;
71183;SDS011;58887;51.980;4.464;2023-05-10T04:47:51;12.46;;;12.46;;
71183;SDS011;58887;51.980;4.464;2023-05-10T04:50:16;12.49;;;12.49;;
71183;SDS011;58887;51.980;4.464;2023-05-10T04:52:43;10.98;;;10.98;;
71183;SDS011;58887;51.980;4.464;2023-05-10T04:55:09;8.30;;;8.06;;
71183;SDS011;58887;51.980;4.464;2023-05-10T04:57:35;6.68;;;6.42;;
71183;SDS011;58887;51.980;4.464;2023-05-10T05:00:02;5.80;;;5.67;;
71183;SDS011;58887;51.980;4.464;2023-05-10T05:02:28;6.08;;;5.91;;
71183;SDS011;58887;51.980;4.464;2023-05-10T05:04:55;6.07;;;5.91;;
71183;SDS011;58887;51.980;4.464;2023-05-10T05:07:23;6.38;;;6.33;;
71183;SDS011;58887;51.980;4.464;2023-05-10T05:09:49;9.66;;;9.65;;
71183;SDS011;58887;51.980;4.464;2023-05-10T05:12:14;8.87;;;8.87;;
71183;SDS011;58887;51.980;4.464;2023-05-10T05:14:40;11.66;;;11.66;;
71183;SDS011;58887;51.980;4.464;2023-05-10T05:17:06;5.72;;;5.72;;
71183;SDS011;58887;51.980;4.464;2023-05-10T05:19:32;3.53;;;3.53;;
71183;SDS011;58887;51.980;4.464;2023-05-10T05:21:58;5.87;;;5.87;;
71183;SDS011;58887;51.980;4.464;2023-05-10T05:24:23;2.76;;;2.76;;
71183;SDS011;58887;51.980;4.464;2023-05-10T05:26:48;2.90;;;2.90;;
71183;SDS011;58887;51.980;4.464;2023-05-10T05:29:14;2.91;;;2.91;;
71183;SDS011;58887;51.980;4.464;2023-05-10T05:31:39;3.20;;;3.20;;
71183;SDS011;58887;51.980;4.464;2023-05-10T05:34:05;2.33;;;2.33;;
71183;SDS011;58887;51.980;4.464;2023-05-10T05:36:30;2.29;;;2.29;;
71183;SDS011;58887;51.980;4.464;2023-05-10T05:38:56;6.04;;;6.04;;
71183;SDS011;58887;51.980;4.464;2023-05-10T05:41:22;2.64;;;2.64;;
71183;SDS011;58887;51.980;4.464;2023-05-10T05:43:49;3.12;;;3.12;;
71183;SDS011;58887;51.980;4.464;2023-05-10T05:46:15;3.39;;;3.39;;
71183;SDS011;58887;51.980;4.464;2023-05-10T05:48:40;3.73;;;3.73;;
71183;SDS011;58887;51.980;4.464;2023-05-10T05:51:06;4.92;;;4.92;;
71183;SDS011;58887;51.980;4.464;2023-05-10T05:53:31;5.30;;;5.30;;
71183;SDS011;58887;51.980;4.464;2023-05-10T05:55:57;10.89;;;10.89;;
71183;SDS011;58887;51.980;4.464;2023-05-10T05:58:24;20.01;;;20.01;;
71183;SDS011;58887;51.980;4.464;2023-05-10T06:00:50;24.23;;;24.23;;
71183;SDS011;58887;51.980;4.464;2023-05-10T06:03:17;56.72;;;56.72;;
71183;SDS011;58887;51.980;4.464;2023-05-10T06:05:43;106.59;;;106.59;;
71183;SDS011;58887;51.980;4.464;2023-05-10T06:08:08;138.87;;;138.87;;
71183;SDS011;58887;51.980;4.464;2023-05-10T06:10:35;72.62;;;72.62;;
71183;SDS011;58887;51.980;4.464;2023-05-10T06:13:02;31.57;;;31.57;;
71183;SDS011;58887;51.980;4.464;2023-05-10T06:15:28;66.63;;;66.63;;
71183;SDS011;58887;51.980;4.464;2023-05-10T06:17:53;133.93;;;133.93;;
71183;SDS011;58887;51.980;4.464;2023-05-10T06:20:19;177.93;;;177.93;;
71183;SDS011;58887;51.980;4.464;2023-05-10T06:22:53;191.15;;;191.15;;
71183;SDS011;58887;51.980;4.464;2023-05-10T06:25:21;339.09;;;339.09;;
71183;SDS011;58887;51.980;4.464;2023-05-10T06:27:48;328.83;;;328.83;;
71183;SDS011;58887;51.980;4.464;2023-05-10T06:30:21;260.77;;;260.77;;
71183;SDS011;58887;51.980;4.464;2023-05-10T06:32:52;203.06;;;203.06;;
71183;SDS011;58887;51.980;4.464;2023-05-10T06:35:18;209.25;;;209.25;;
71183;SDS011;58887;51.980;4.464;2023-05-10T06:37:45;253.09;;;253.09;;
71183;SDS011;58887;51.980;4.464;2023-05-10T06:40:17;285.49;;;285.49;;
71183;SDS011;58887;51.980;4.464;2023-05-10T06:42:45;313.15;;;313.15;;
71183;SDS011;58887;51.980;4.464;2023-05-10T06:45:12;301.94;;;301.94;;
71183;SDS011;58887;51.980;4.464;2023-05-10T06:47:37;339.74;;;339.74;;
71183;SDS011;58887;51.980;4.464;2023-05-10T06:50:03;275.61;;;275.61;;
71183;SDS011;58887;51.980;4.464;2023-05-10T06:52:35;268.11;;;268.11;;
71183;SDS011;58887;51.980;4.464;2023-05-10T06:55:03;240.68;;;240.68;;
71183;SDS011;58887;51.980;4.464;2023-05-10T06:57:31;239.79;;;239.79;;
71183;SDS011;58887;51.980;4.464;2023-05-10T07:02:32;183.95;;;183.95;;
71183;SDS011;58887;51.980;4.464;2023-05-10T07:04:58;222.61;;;222.61;;
71183;SDS011;58887;51.980;4.464;2023-05-10T07:07:23;285.88;;;285.88;;
71183;SDS011;58887;51.980;4.464;2023-05-10T07:09:56;319.66;;;319.66;;
71183;SDS011;58887;51.980;4.464;2023-05-10T07:12:30;300.13;;;300.13;;
71183;SDS011;58887;51.980;4.464;2023-05-10T07:15:07;262.71;;;262.71;;
71183;SDS011;58887;51.980;4.464;2023-05-10T07:17:46;282.23;;;282.23;;
71183;SDS011;58887;51.980;4.464;2023-05-10T07:26:55;323.36;;;323.36;;
71183;SDS011;58887;51.980;4.464;2023-05-10T07:29:24;228.57;;;228.57;;
71183;SDS011;58887;51.980;4.464;2023-05-10T07:31:56;249.77;;;249.77;;
71183;SDS011;58887;51.980;4.464;2023-05-10T07:36:51;213.12;;;213.12;;
71183;SDS011;58887;51.980;4.464;2023-05-10T07:39:19;199.05;;;199.05;;
71183;SDS011;58887;51.980;4.464;2023-05-10T07:41:53;297.05;;;297.05;;
71183;SDS011;58887;51.980;4.464;2023-05-10T07:44:21;375.37;;;375.37;;
71183;SDS011;58887;51.980;4.464;2023-05-10T07:46:47;302.94;;;302.94;;
71183;SDS011;58887;51.980;4.464;2023-05-10T07:49:13;281.40;;;281.40;;
71183;SDS011;58887;51.980;4.464;2023-05-10T07:51:40;320.73;;;320.73;;
71183;SDS011;58887;51.980;4.464;2023-05-10T07:54:09;384.44;;;384.44;;
71183;SDS011;58887;51.980;4.464;2023-05-10T07:56:39;337.51;;;337.51;;
71183;SDS011;58887;51.980;4.464;2023-05-10T08:05:14;189.52;;;189.52;;
71183;SDS011;58887;51.980;4.464;2023-05-10T08:07:41;114.20;;;114.20;;
71183;SDS011;58887;51.980;4.464;2023-05-10T08:10:14;61.39;;;61.39;;
71183;SDS011;58887;51.980;4.464;2023-05-10T08:12:47;93.24;;;93.24;;
71183;SDS011;58887;51.980;4.464;2023-05-10T08:15:24;106.03;;;106.03;;
71183;SDS011;58887;51.980;4.464;2023-05-10T08:24:35;39.69;;;39.69;;
71183;SDS011;58887;51.980;4.464;2023-05-10T08:27:06;87.55;;;87.55;;
71183;SDS011;58887;51.980;4.464;2023-05-10T08:32:59;69.86;;;69.86;;
71183;SDS011;58887;51.980;4.464;2023-05-10T08:35:25;75.18;;;75.18;;
71183;SDS011;58887;51.980;4.464;2023-05-10T08:40:44;25.18;;;25.18;;
71183;SDS011;58887;51.980;4.464;2023-05-10T09:01:34;14.50;;;14.50;;
71183;SDS011;58887;51.980;4.464;2023-05-10T09:04:03;27.12;;;27.12;;
71183;SDS011;58887;51.980;4.464;2023-05-10T09:06:29;22.80;;;22.80;;
71183;SDS011;58887;51.980;4.464;2023-05-10T09:08:54;44.50;;;44.50;;
71183;SDS011;58887;51.980;4.464;2023-05-10T09:11:20;74.30;;;74.30;;
71183;SDS011;58887;51.980;4.464;2023-05-10T09:13:47;51.83;;;51.83;;
71183;SDS011;58887;51.980;4.464;2023-05-10T09:16:15;38.25;;;38.25;;
71183;SDS011;58887;51.980;4.464;2023-05-10T09:18:41;34.72;;;34.72;;
71183;SDS011;58887;51.980;4.464;2023-05-10T09:21:09;41.41;;;41.41;;
71183;SDS011;58887;51.980;4.464;2023-05-10T09:23:35;28.64;;;28.64;;
71183;SDS011;58887;51.980;4.464;2023-05-10T09:26:04;54.74;;;54.74;;
71183;SDS011;58887;51.980;4.464;2023-05-10T09:28:34;64.42;;;64.42;;
71183;SDS011;58887;51.980;4.464;2023-05-10T09:31:14;30.77;;;30.77;;
71183;SDS011;58887;51.980;4.464;2023-05-10T09:33:43;14.68;;;14.68;;
71183;SDS011;58887;51.980;4.464;2023-05-10T09:36:11;9.13;;;9.13;;
71183;SDS011;58887;51.980;4.464;2023-05-10T09:38:46;4.80;;;4.80;;
71183;SDS011;58887;51.980;4.464;2023-05-10T09:41:23;4.40;;;4.40;;
71183;SDS011;58887;51.980;4.464;2023-05-10T09:43:49;3.40;;;3.40;;
71183;SDS011;58887;51.980;4.464;2023-05-10T09:46:15;3.42;;;3.42;;
71183;SDS011;58887;51.980;4.464;2023-05-10T09:48:45;3.25;;;3.25;;
71183;SDS011;58887;51.980;4.464;2023-05-10T09:51:19;3.54;;;3.54;;
71183;SDS011;58887;51.980;4.464;2023-05-10T09:53:46;3.07;;;3.07;;
71183;SDS011;58887;51.980;4.464;2023-05-10T09:56:12;3.57;;;3.57;;
71183;SDS011;58887;51.980;4.464;2023-05-10T10:01:28;2.63;;;2.63;;
71183;SDS011;58887;51.980;4.464;2023-05-10T10:04:08;2.00;;;2.00;;
71183;SDS011;58887;51.980;4.464;2023-05-10T10:06:37;2.38;;;2.38;;
71183;SDS011;58887;51.980;4.464;2023-05-10T10:12:29;4.03;;;4.03;;
71183;SDS011;58887;51.980;4.464;2023-05-10T10:15:10;4.46;;;4.46;;
71183;SDS011;58887;51.980;4.464;2023-05-10T10:20:59;3.61;;;3.61;;
71183;SDS011;58887;51.980;4.464;2023-05-10T10:27:04;3.74;;;3.74;;
71183;SDS011;58887;51.980;4.464;2023-05-10T10:35:28;3.09;;;3.09;;
71183;SDS011;58887;51.980;4.464;2023-05-10T10:50:09;2.97;;;2.97;;
71183;SDS011;58887;51.980;4.464;2023-05-10T10:55:25;2.70;;;2.70;;
71183;SDS011;58887;51.980;4.464;2023-05-10T10:57:53;2.88;;;2.88;;
71183;SDS011;58887;51.980;4.464;2023-05-10T11:00:32;3.00;;;3.00;;
71183;SDS011;58887;51.980;4.464;2023-05-10T11:03:05;3.03;;;3.03;;
71183;SDS011;58887;51.980;4.464;2023-05-10T11:05:58;3.08;;;3.08;;
71183;SDS011;58887;51.980;4.464;2023-05-10T11:08:33;2.99;;;2.99;;
71183;SDS011;58887;51.980;4.464;2023-05-10T11:11:07;6.30;;;6.30;;
71183;SDS011;58887;51.980;4.464;2023-05-10T11:13:47;5.66;;;5.66;;
71183;SDS011;58887;51.980;4.464;2023-05-10T11:16:24;3.87;;;3.87;;
71183;SDS011;58887;51.980;4.464;2023-05-10T11:24:29;3.38;;;3.38;;
71183;SDS011;58887;51.980;4.464;2023-05-10T11:26:54;3.65;;;3.65;;
71183;SDS011;58887;51.980;4.464;2023-05-10T11:29:21;3.80;;;3.80;;
71183;SDS011;58887;51.980;4.464;2023-05-10T11:31:47;3.85;;;3.85;;
71183;SDS011;58887;51.980;4.464;2023-05-10T11:34:24;3.39;;;3.39;;
71183;SDS011;58887;51.980;4.464;2023-05-10T11:36:52;3.29;;;3.29;;
71183;SDS011;58887;51.980;4.464;2023-05-10T11:39:19;3.60;;;3.60;;
71183;SDS011;58887;51.980;4.464;2023-05-10T11:41:47;3.28;;;3.28;;
71183;SDS011;58887;51.980;4.464;2023-05-10T11:44:14;3.09;;;3.09;;
71183;SDS011;58887;51.980;4.464;2023-05-10T11:46:39;3.01;;;3.01;;
71183;SDS011;58887;51.980;4.464;2023-05-10T11:49:05;5.58;;;5.58;;
71183;SDS011;58887;51.980;4.464;2023-05-10T11:51:33;5.33;;;5.33;;
71183;SDS011;58887;51.980;4.464;2023-05-10T11:54:02;2.78;;;2.78;;
71183;SDS011;58887;51.980;4.464;2023-05-10T11:56:32;2.98;;;2.98;;
71183;SDS011;58887;51.980;4.464;2023-05-10T11:58:58;2.93;;;2.93;;
71183;SDS011;58887;51.980;4.464;2023-05-10T12:01:25;3.05;;;3.05;;
71183;SDS011;58887;51.980;4.464;2023-05-10T12:03:52;3.19;;;3.19;;
71183;SDS011;58887;51.980;4.464;2023-05-10T12:06:20;2.83;;;2.83;;
71183;SDS011;58887;51.980;4.464;2023-05-10T12:08:47;3.30;;;3.30;;
71183;SDS011;58887;51.980;4.464;2023-05-10T12:11:17;3.45;;;3.45;;
71183;SDS011;58887;51.980;4.464;2023-05-10T12:13:43;3.55;;;3.55;;
71183;SDS011;58887;51.980;4.464;2023-05-10T12:16:13;3.84;;;3.84;;
71183;SDS011;58887;51.980;4.464;2023-05-10T12:18:40;7.70;;;7.70;;
71183;SDS011;58887;51.980;4.464;2023-05-10T12:21:09;9.02;;;9.02;;
71183;SDS011;58887;51.980;4.464;2023-05-10T12:23:36;36.34;;;36.34;;
71183;SDS011;58887;51.980;4.464;2023-05-10T12:26:03;37.80;;;37.80;;
71183;SDS011;58887;51.980;4.464;2023-05-10T12:28:30;31.24;;;31.24;;
71183;SDS011;58887;51.980;4.464;2023-05-10T12:30:57;34.82;;;34.82;;
71183;SDS011;58887;51.980;4.464;2023-05-10T12:33:24;72.09;;;72.09;;
71183;SDS011;58887;51.980;4.464;2023-05-10T12:35:51;58.56;;;58.56;;
71183;SDS011;58887;51.980;4.464;2023-05-10T12:41:08;11.19;;;11.19;;
71183;SDS011;58887;51.980;4.464;2023-05-10T12:43:35;7.65;;;7.65;;
71183;SDS011;58887;51.980;4.464;2023-05-10T12:46:05;3.52;;;3.52;;
71183;SDS011;58887;51.980;4.464;2023-05-10T12:48:35;3.42;;;3.42;;
71183;SDS011;58887;51.980;4.464;2023-05-10T12:51:02;3.40;;;3.40;;
71183;SDS011;58887;51.980;4.464;2023-05-10T12:53:29;3.37;;;3.37;;
71183;SDS011;58887;51.980;4.464;2023-05-10T12:55:55;3.11;;;3.11;;
71183;SDS011;58887;51.980;4.464;2023-05-10T12:58:22;2.86;;;2.86;;
71183;SDS011;58887;51.980;4.464;2023-05-10T13:00:48;2.81;;;2.81;;
71183;SDS011;58887;51.980;4.464;2023-05-10T13:03:16;2.91;;;2.91;;
71183;SDS011;58887;51.980;4.464;2023-05-10T13:05:44;3.09;;;3.09;;
71183;SDS011;58887;51.980;4.464;2023-05-10T13:10:40;3.20;;;3.20;;
71183;SDS011;58887;51.980;4.464;2023-05-10T13:13:10;2.92;;;2.92;;
71183;SDS011;58887;51.980;4.464;2023-05-10T13:15:35;3.02;;;3.02;;
71183;SDS011;58887;51.980;4.464;2023-05-10T13:18:01;2.72;;;2.72;;
71183;SDS011;58887;51.980;4.464;2023-05-10T13:20:26;2.50;;;2.50;;
71183;SDS011;58887;51.980;4.464;2023-05-10T13:22:52;2.92;;;2.92;;
71183;SDS011;58887;51.980;4.464;2023-05-10T13:25:19;2.59;;;2.59;;
71183;SDS011;58887;51.980;4.464;2023-05-10T13:27:45;2.84;;;2.84;;
71183;SDS011;58887;51.980;4.464;2023-05-10T13:30:11;2.90;;;2.90;;
71183;SDS011;58887;51.980;4.464;2023-05-10T13:32:37;5.07;;;5.07;;
71183;SDS011;58887;51.980;4.464;2023-05-10T13:35:06;6.69;;;6.69;;
71183;SDS011;58887;51.980;4.464;2023-05-10T13:37:32;3.11;;;3.11;;
71183;SDS011;58887;51.980;4.464;2023-05-10T13:40:02;2.38;;;2.38;;
71183;SDS011;58887;51.980;4.464;2023-05-10T13:42:29;2.20;;;2.20;;
71183;SDS011;58887;51.980;4.464;2023-05-10T13:44:54;2.22;;;2.22;;
71183;SDS011;58887;51.980;4.464;2023-05-10T13:50:16;2.26;;;2.26;;
71183;SDS011;58887;51.980;4.464;2023-05-10T13:52:44;2.29;;;2.29;;
71183;SDS011;58887;51.980;4.464;2023-05-10T13:55:09;2.15;;;2.15;;
71183;SDS011;58887;51.980;4.464;2023-05-10T13:57:42;2.39;;;2.39;;
71183;SDS011;58887;51.980;4.464;2023-05-10T14:00:08;2.52;;;2.52;;
71183;SDS011;58887;51.980;4.464;2023-05-10T14:02:35;2.33;;;2.33;;
71183;SDS011;58887;51.980;4.464;2023-05-10T14:05:10;2.20;;;2.20;;
71183;SDS011;58887;51.980;4.464;2023-05-10T14:07:43;2.54;;;2.54;;
71183;SDS011;58887;51.980;4.464;2023-05-10T14:10:08;2.36;;;2.36;;
71183;SDS011;58887;51.980;4.464;2023-05-10T14:12:34;2.18;;;2.18;;
71183;SDS011;58887;51.980;4.464;2023-05-10T14:14:59;2.42;;;2.42;;
71183;SDS011;58887;51.980;4.464;2023-05-10T14:17:25;2.89;;;2.89;;
71183;SDS011;58887;51.980;4.464;2023-05-10T14:19:52;2.80;;;2.80;;
71183;SDS011;58887;51.980;4.464;2023-05-10T14:22:18;3.00;;;3.00;;
71183;SDS011;58887;51.980;4.464;2023-05-10T14:24:46;3.01;;;3.01;;
71183;SDS011;58887;51.980;4.464;2023-05-10T14:27:15;3.06;;;3.06;;
71183;SDS011;58887;51.980;4.464;2023-05-10T14:29:43;3.20;;;3.20;;
71183;SDS011;58887;51.980;4.464;2023-05-10T14:32:08;3.30;;;3.30;;
71183;SDS011;58887;51.980;4.464;2023-05-10T14:34:50;3.25;;;3.25;;
71183;SDS011;58887;51.980;4.464;2023-05-10T14:39:46;2.96;;;2.96;;
71183;SDS011;58887;51.980;4.464;2023-05-10T14:42:11;2.72;;;2.72;;
71183;SDS011;58887;51.980;4.464;2023-05-10T14:44:40;2.83;;;2.83;;
71183;SDS011;58887;51.980;4.464;2023-05-10T14:47:06;2.61;;;2.61;;
71183;SDS011;58887;51.980;4.464;2023-05-10T14:49:35;2.73;;;2.73;;
71183;SDS011;58887;51.980;4.464;2023-05-10T14:52:02;2.49;;;2.49;;
71183;SDS011;58887;51.980;4.464;2023-05-10T14:54:28;2.39;;;2.39;;
71183;SDS011;58887;51.980;4.464;2023-05-10T14:56:55;2.75;;;2.75;;
71183;SDS011;58887;51.980;4.464;2023-05-10T14:59:22;2.66;;;2.66;;
71183;SDS011;58887;51.980;4.464;2023-05-10T15:01:59;2.74;;;2.74;;
71183;SDS011;58887;51.980;4.464;2023-05-10T15:04:30;2.67;;;2.67;;
71183;SDS011;58887;51.980;4.464;2023-05-10T15:06:57;2.65;;;2.65;;
71183;SDS011;58887;51.980;4.464;2023-05-10T15:09:25;2.35;;;2.35;;
71183;SDS011;58887;51.980;4.464;2023-05-10T15:12:06;2.31;;;2.31;;
71183;SDS011;58887;51.980;4.464;2023-05-10T15:14:32;2.18;;;2.18;;
71183;SDS011;58887;51.980;4.464;2023-05-10T15:17:00;2.08;;;2.08;;
71183;SDS011;58887;51.980;4.464;2023-05-10T15:19:32;1.85;;;1.85;;
71183;SDS011;58887;51.980;4.464;2023-05-10T15:22:05;1.71;;;1.71;;
71183;SDS011;58887;51.980;4.464;2023-05-10T15:24:35;1.78;;;1.78;;
71183;SDS011;58887;51.980;4.464;2023-05-10T15:27:09;1.92;;;1.92;;
71183;SDS011;58887;51.980;4.464;2023-05-10T15:29:35;1.79;;;1.79;;
71183;SDS011;58887;51.980;4.464;2023-05-10T15:32:10;1.80;;;1.80;;
71183;SDS011;58887;51.980;4.464;2023-05-10T15:34:36;1.70;;;1.70;;
71183;SDS011;58887;51.980;4.464;2023-05-10T15:37:04;1.69;;;1.69;;
71183;SDS011;58887;51.980;4.464;2023-05-10T15:39:33;1.86;;;1.86;;
71183;SDS011;58887;51.980;4.464;2023-05-10T15:42:01;1.67;;;1.67;;
71183;SDS011;58887;51.980;4.464;2023-05-10T15:44:28;1.83;;;1.83;;
71183;SDS011;58887;51.980;4.464;2023-05-10T15:46:54;1.52;;;1.52;;
71183;SDS011;58887;51.980;4.464;2023-05-10T15:49:21;1.51;;;1.51;;
71183;SDS011;58887;51.980;4.464;2023-05-10T15:51:46;1.29;;;1.29;;
71183;SDS011;58887;51.980;4.464;2023-05-10T15:54:14;1.39;;;1.39;;
71183;SDS011;58887;51.980;4.464;2023-05-10T15:56:40;1.89;;;1.89;;
71183;SDS011;58887;51.980;4.464;2023-05-10T15:59:06;1.53;;;1.53;;
71183;SDS011;58887;51.980;4.464;2023-05-10T16:01:33;1.66;;;1.66;;
71183;SDS011;58887;51.980;4.464;2023-05-10T16:04:13;1.81;;;1.81;;
71183;SDS011;58887;51.980;4.464;2023-05-10T16:06:39;1.62;;;1.62;;
71183;SDS011;58887;51.980;4.464;2023-05-10T16:09:07;1.71;;;1.71;;
71183;SDS011;58887;51.980;4.464;2023-05-10T16:11:32;1.50;;;1.50;;
71183;SDS011;58887;51.980;4.464;2023-05-10T16:14:00;1.62;;;1.62;;
71183;SDS011;58887;51.980;4.464;2023-05-10T16:19:01;1.64;;;1.64;;
71183;SDS011;58887;51.980;4.464;2023-05-10T16:21:31;1.76;;;1.76;;
71183;SDS011;58887;51.980;4.464;2023-05-10T16:23:58;1.79;;;1.79;;
71183;SDS011;58887;51.980;4.464;2023-05-10T16:29:02;1.51;;;1.51;;
71183;SDS011;58887;51.980;4.464;2023-05-10T16:31:38;0.99;;;0.99;;
71183;SDS011;58887;51.980;4.464;2023-05-10T16:34:09;1.28;;;1.28;;
71183;SDS011;58887;51.980;4.464;2023-05-10T16:36:36;1.73;;;1.73;;
71183;SDS011;58887;51.980;4.464;2023-05-10T16:39:04;2.15;;;2.15;;
71183;SDS011;58887;51.980;4.464;2023-05-10T16:41:34;2.66;;;2.66;;
71183;SDS011;58887;51.980;4.464;2023-05-10T16:44:00;2.85;;;2.85;;
71183;SDS011;58887;51.980;4.464;2023-05-10T16:46:27;2.56;;;2.56;;